sensor_id;sensor_type;location;lat;lon;timestamp;temperature;humidity
6252;DHT22;3159;52.414;9.784;2023-03-21T00:02:23;9.70;99.90
6252;DHT22;3159;52.414;9.784;2023-03-21T00:04:50;9.70;99.90
6252;DHT22;3159;52.414;9.784;2023-03-21T00:07:17;9.70;99.90
6252;DHT22;3159;52.414;9.784;2023-03-21T00:09:45;9.70;99.90
6252;DHT22;3159;52.414;9.784;2023-03-21T00:12:12;9.80;99.90
6252;DHT22;3159;52.414;9.784;2023-03-21T00:14:38;9.80;99.90
6252;DHT22;3159;52.414;9.784;2023-03-21T00:17:05;9.80;99.90
6252;DHT22;3159;52.414;9.784;2023-03-21T00:19:32;9.80;99.90
6252;DHT22;3159;52.414;9.784;2023-03-21T00:22:03;9.80;99.90
6252;DHT22;3159;52.414;9.784;2023-03-21T00:24:29;9.80;99.90
6252;DHT22;3159;52.414;9.784;2023-03-21T00:26:58;9.80;99.90
6252;DHT22;3159;52.414;9.784;2023-03-21T00:29:25;9.80;99.90
6252;DHT22;3159;52.414;9.784;2023-03-21T00:31:52;9.90;99.90
6252;DHT22;3159;52.414;9.784;2023-03-21T00:34:18;9.90;99.90
6252;DHT22;3159;52.414;9.784;2023-03-21T00:36:45;10.00;99.90
6252;DHT22;3159;52.414;9.784;2023-03-21T00:39:12;9.90;99.90
6252;DHT22;3159;52.414;9.784;2023-03-21T00:41:39;10.00;99.90
6252;DHT22;3159;52.414;9.784;2023-03-21T00:44:08;9.90;99.90
6252;DHT22;3159;52.414;9.784;2023-03-21T00:46:36;10.00;99.90
6252;DHT22;3159;52.414;9.784;2023-03-21T00:49:02;10.00;99.90
6252;DHT22;3159;52.414;9.784;2023-03-21T00:51:29;10.00;99.90
6252;DHT22;3159;52.414;9.784;2023-03-21T00:53:57;10.10;99.90
6252;DHT22;3159;52.414;9.784;2023-03-21T00:56:24;10.10;99.90
6252;DHT22;3159;52.414;9.784;2023-03-21T00:58:51;10.10;99.90
6252;DHT22;3159;52.414;9.784;2023-03-21T01:01:19;10.00;99.90
6252;DHT22;3159;52.414;9.784;2023-03-21T01:03:46;10.00;99.90
6252;DHT22;3159;52.414;9.784;2023-03-21T01:06:16;10.00;99.90
6252;DHT22;3159;52.414;9.784;2023-03-21T01:08:45;9.90;99.90
6252;DHT22;3159;52.414;9.784;2023-03-21T01:11:14;9.90;99.90
6252;DHT22;3159;52.414;9.784;2023-03-21T01:13:41;9.90;99.90
6252;DHT22;3159;52.414;9.784;2023-03-21T01:16:09;9.80;99.90
6252;DHT22;3159;52.414;9.784;2023-03-21T01:18:39;9.90;99.90
6252;DHT22;3159;52.414;9.784;2023-03-21T01:21:09;9.90;99.90
6252;DHT22;3159;52.414;9.784;2023-03-21T01:23:36;9.90;99.90
6252;DHT22;3159;52.414;9.784;2023-03-21T01:26:03;9.90;99.90
6252;DHT22;3159;52.414;9.784;2023-03-21T01:28:30;9.90;99.90
6252;DHT22;3159;52.414;9.784;2023-03-21T01:30:59;9.90;99.90
6252;DHT22;3159;52.414;9.784;2023-03-21T01:33:27;10.10;99.90
6252;DHT22;3159;52.414;9.784;2023-03-21T01:35:56;10.00;99.90
6252;DHT22;3159;52.414;9.784;2023-03-21T01:38:23;10.00;99.90
6252;DHT22;3159;52.414;9.784;2023-03-21T01:40:51;10.00;99.90
6252;DHT22;3159;52.414;9.784;2023-03-21T01:43:23;10.00;99.90
6252;DHT22;3159;52.414;9.784;2023-03-21T01:46:25;10.00;99.90
6252;DHT22;3159;52.414;9.784;2023-03-21T01:48:55;10.00;99.90
6252;DHT22;3159;52.414;9.784;2023-03-21T01:51:25;9.90;99.90
6252;DHT22;3159;52.414;9.784;2023-03-21T01:53:53;10.00;99.90
6252;DHT22;3159;52.414;9.784;2023-03-21T01:56:23;10.00;99.90
6252;DHT22;3159;52.414;9.784;2023-03-21T01:58:54;10.00;99.90
6252;DHT22;3159;52.414;9.784;2023-03-21T02:01:22;10.00;99.90
6252;DHT22;3159;52.414;9.784;2023-03-21T02:03:49;10.00;99.90
6252;DHT22;3159;52.414;9.784;2023-03-21T02:06:26;10.00;99.90
6252;DHT22;3159;52.414;9.784;2023-03-21T02:08:58;9.90;99.90
6252;DHT22;3159;52.414;9.784;2023-03-21T02:11:27;9.90;99.90
6252;DHT22;3159;52.414;9.784;2023-03-21T02:13:56;10.00;99.90
6252;DHT22;3159;52.414;9.784;2023-03-21T02:16:28;10.10;99.90
6252;DHT22;3159;52.414;9.784;2023-03-21T02:19:04;10.00;99.90
6252;DHT22;3159;52.414;9.784;2023-03-21T02:22:09;10.00;99.90
6252;DHT22;3159;52.414;9.784;2023-03-21T02:25:16;10.10;99.90
6252;DHT22;3159;52.414;9.784;2023-03-21T02:27:48;10.10;99.90
6252;DHT22;3159;52.414;9.784;2023-03-21T02:30:32;10.10;99.90
6252;DHT22;3159;52.414;9.784;2023-03-21T02:36:14;10.10;99.90
6252;DHT22;3159;52.414;9.784;2023-03-21T02:38:50;10.00;99.90
6252;DHT22;3159;52.414;9.784;2023-03-21T02:41:24;10.00;99.90
6252;DHT22;3159;52.414;9.784;2023-03-21T02:43:55;10.10;99.90
6252;DHT22;3159;52.414;9.784;2023-03-21T02:46:29;10.00;99.90
6252;DHT22;3159;52.414;9.784;2023-03-21T02:49:06;10.00;99.90
6252;DHT22;3159;52.414;9.784;2023-03-21T02:51:34;10.00;99.90
6252;DHT22;3159;52.414;9.784;2023-03-21T02:54:07;10.00;99.90
6252;DHT22;3159;52.414;9.784;2023-03-21T02:56:35;10.00;99.90
6252;DHT22;3159;52.414;9.784;2023-03-21T02:59:03;10.00;99.90
6252;DHT22;3159;52.414;9.784;2023-03-21T03:01:30;10.00;99.90
6252;DHT22;3159;52.414;9.784;2023-03-21T03:03:57;10.00;99.90
6252;DHT22;3159;52.414;9.784;2023-03-21T03:06:28;10.00;99.90
6252;DHT22;3159;52.414;9.784;2023-03-21T03:09:17;10.10;99.90
6252;DHT22;3159;52.414;9.784;2023-03-21T03:11:51;10.00;99.90
6252;DHT22;3159;52.414;9.784;2023-03-21T03:14:31;10.10;99.90
6252;DHT22;3159;52.414;9.784;2023-03-21T03:17:09;10.00;99.90
6252;DHT22;3159;52.414;9.784;2023-03-21T03:19:44;10.10;99.90
6252;DHT22;3159;52.414;9.784;2023-03-21T03:22:19;10.10;99.90
6252;DHT22;3159;52.414;9.784;2023-03-21T03:24:53;10.10;99.90
6252;DHT22;3159;52.414;9.784;2023-03-21T03:27:25;10.10;99.90
6252;DHT22;3159;52.414;9.784;2023-03-21T03:29:57;10.10;99.90
6252;DHT22;3159;52.414;9.784;2023-03-21T03:32:28;10.10;99.90
6252;DHT22;3159;52.414;9.784;2023-03-21T03:34:57;10.10;99.90
6252;DHT22;3159;52.414;9.784;2023-03-21T03:37:28;10.00;99.90
6252;DHT22;3159;52.414;9.784;2023-03-21T03:40:01;10.00;99.90
6252;DHT22;3159;52.414;9.784;2023-03-21T03:42:34;10.10;99.90
6252;DHT22;3159;52.414;9.784;2023-03-21T03:45:02;10.00;99.90
6252;DHT22;3159;52.414;9.784;2023-03-21T03:47:32;10.10;99.90
6252;DHT22;3159;52.414;9.784;2023-03-21T03:50:07;10.10;99.90
6252;DHT22;3159;52.414;9.784;2023-03-21T03:52:38;10.00;99.90
6252;DHT22;3159;52.414;9.784;2023-03-21T03:55:08;10.00;99.90
6252;DHT22;3159;52.414;9.784;2023-03-21T03:57:36;10.10;99.90
6252;DHT22;3159;52.414;9.784;2023-03-21T04:00:04;10.20;99.90
6252;DHT22;3159;52.414;9.784;2023-03-21T04:02:36;10.10;99.90
6252;DHT22;3159;52.414;9.784;2023-03-21T04:05:03;10.00;99.90
6252;DHT22;3159;52.414;9.784;2023-03-21T04:07:30;10.10;99.90
6252;DHT22;3159;52.414;9.784;2023-03-21T04:09:57;10.10;99.90
6252;DHT22;3159;52.414;9.784;2023-03-21T04:12:25;10.10;99.90
6252;DHT22;3159;52.414;9.784;2023-03-21T04:14:52;10.10;99.90
6252;DHT22;3159;52.414;9.784;2023-03-21T04:17:19;10.00;99.90
6252;DHT22;3159;52.414;9.784;2023-03-21T04:19:46;10.10;99.90
6252;DHT22;3159;52.414;9.784;2023-03-21T04:22:13;10.10;99.90
6252;DHT22;3159;52.414;9.784;2023-03-21T04:24:40;10.10;99.90
6252;DHT22;3159;52.414;9.784;2023-03-21T04:27:06;10.10;99.90
6252;DHT22;3159;52.414;9.784;2023-03-21T04:29:35;10.00;99.90
6252;DHT22;3159;52.414;9.784;2023-03-21T04:32:01;10.10;99.90
6252;DHT22;3159;52.414;9.784;2023-03-21T04:34:28;10.20;99.90
6252;DHT22;3159;52.414;9.784;2023-03-21T04:36:55;10.20;99.90
6252;DHT22;3159;52.414;9.784;2023-03-21T04:39:22;10.20;99.90
6252;DHT22;3159;52.414;9.784;2023-03-21T04:41:49;10.10;99.90
6252;DHT22;3159;52.414;9.784;2023-03-21T04:44:16;10.10;99.90
6252;DHT22;3159;52.414;9.784;2023-03-21T04:46:45;10.10;99.90
6252;DHT22;3159;52.414;9.784;2023-03-21T04:49:12;10.10;99.90
6252;DHT22;3159;52.414;9.784;2023-03-21T04:51:39;10.10;99.90
6252;DHT22;3159;52.414;9.784;2023-03-21T04:54:06;10.20;99.90
6252;DHT22;3159;52.414;9.784;2023-03-21T04:56:33;10.10;99.90
6252;DHT22;3159;52.414;9.784;2023-03-21T04:59:05;10.10;99.90
6252;DHT22;3159;52.414;9.784;2023-03-21T05:01:32;10.10;99.90
6252;DHT22;3159;52.414;9.784;2023-03-21T05:04:01;10.10;99.90
6252;DHT22;3159;52.414;9.784;2023-03-21T05:06:29;10.10;99.90
6252;DHT22;3159;52.414;9.784;2023-03-21T05:08:57;10.00;99.90
6252;DHT22;3159;52.414;9.784;2023-03-21T05:11:26;10.00;99.90
6252;DHT22;3159;52.414;9.784;2023-03-21T05:13:55;10.00;99.90
6252;DHT22;3159;52.414;9.784;2023-03-21T05:16:22;10.00;99.90
6252;DHT22;3159;52.414;9.784;2023-03-21T05:18:51;10.00;99.90
6252;DHT22;3159;52.414;9.784;2023-03-21T05:21:22;10.10;99.90
6252;DHT22;3159;52.414;9.784;2023-03-21T05:23:49;10.00;99.90
6252;DHT22;3159;52.414;9.784;2023-03-21T05:26:20;10.10;99.90
6252;DHT22;3159;52.414;9.784;2023-03-21T05:28:47;10.00;99.90
6252;DHT22;3159;52.414;9.784;2023-03-21T05:31:14;10.00;99.90
6252;DHT22;3159;52.414;9.784;2023-03-21T05:33:41;10.00;99.90
6252;DHT22;3159;52.414;9.784;2023-03-21T05:36:08;9.90;99.90
6252;DHT22;3159;52.414;9.784;2023-03-21T05:38:37;9.90;99.90
6252;DHT22;3159;52.414;9.784;2023-03-21T05:41:04;9.80;99.90
6252;DHT22;3159;52.414;9.784;2023-03-21T05:43:31;9.90;99.90
6252;DHT22;3159;52.414;9.784;2023-03-21T05:45:58;9.90;99.90
6252;DHT22;3159;52.414;9.784;2023-03-21T05:48:24;9.80;99.90
6252;DHT22;3159;52.414;9.784;2023-03-21T05:50:52;9.90;99.90
6252;DHT22;3159;52.414;9.784;2023-03-21T05:53:19;10.00;99.90
6252;DHT22;3159;52.414;9.784;2023-03-21T05:55:47;10.00;99.90
6252;DHT22;3159;52.414;9.784;2023-03-21T05:58:14;10.00;99.90
6252;DHT22;3159;52.414;9.784;2023-03-21T06:00:40;9.90;99.90
6252;DHT22;3159;52.414;9.784;2023-03-21T06:03:07;9.90;99.90
6252;DHT22;3159;52.414;9.784;2023-03-21T06:05:34;9.90;99.90
6252;DHT22;3159;52.414;9.784;2023-03-21T06:08:01;9.90;99.90
6252;DHT22;3159;52.414;9.784;2023-03-21T06:10:28;9.90;99.90
6252;DHT22;3159;52.414;9.784;2023-03-21T06:12:56;9.90;99.90
6252;DHT22;3159;52.414;9.784;2023-03-21T06:15:23;10.00;99.90
6252;DHT22;3159;52.414;9.784;2023-03-21T06:17:51;9.90;99.90
6252;DHT22;3159;52.414;9.784;2023-03-21T06:20:18;9.90;99.90
6252;DHT22;3159;52.414;9.784;2023-03-21T06:22:44;9.80;99.90
6252;DHT22;3159;52.414;9.784;2023-03-21T06:25:11;9.90;99.90
6252;DHT22;3159;52.414;9.784;2023-03-21T06:27:38;9.90;99.90
6252;DHT22;3159;52.414;9.784;2023-03-21T06:30:08;9.90;99.90
6252;DHT22;3159;52.414;9.784;2023-03-21T06:32:35;9.90;99.90
6252;DHT22;3159;52.414;9.784;2023-03-21T06:35:02;9.90;99.90
6252;DHT22;3159;52.414;9.784;2023-03-21T06:37:29;9.90;99.90
6252;DHT22;3159;52.414;9.784;2023-03-21T06:39:56;9.90;99.90
6252;DHT22;3159;52.414;9.784;2023-03-21T06:42:22;9.90;99.90
6252;DHT22;3159;52.414;9.784;2023-03-21T06:44:49;9.90;99.90
6252;DHT22;3159;52.414;9.784;2023-03-21T06:47:17;10.10;99.90
6252;DHT22;3159;52.414;9.784;2023-03-21T06:49:44;10.00;99.90
6252;DHT22;3159;52.414;9.784;2023-03-21T06:52:11;10.00;99.90
6252;DHT22;3159;52.414;9.784;2023-03-21T06:54:38;10.20;99.90
6252;DHT22;3159;52.414;9.784;2023-03-21T06:57:05;10.20;99.90
6252;DHT22;3159;52.414;9.784;2023-03-21T06:59:31;10.10;99.90
6252;DHT22;3159;52.414;9.784;2023-03-21T07:01:58;10.20;99.90
6252;DHT22;3159;52.414;9.784;2023-03-21T07:04:27;10.20;99.90
6252;DHT22;3159;52.414;9.784;2023-03-21T07:06:53;10.20;99.90
6252;DHT22;3159;52.414;9.784;2023-03-21T07:09:20;10.20;99.90
6252;DHT22;3159;52.414;9.784;2023-03-21T07:11:49;10.20;99.90
6252;DHT22;3159;52.414;9.784;2023-03-21T07:14:18;10.30;99.90
6252;DHT22;3159;52.414;9.784;2023-03-21T07:16:45;10.20;99.90
6252;DHT22;3159;52.414;9.784;2023-03-21T07:19:12;10.30;99.90
6252;DHT22;3159;52.414;9.784;2023-03-21T07:21:41;10.30;99.90
6252;DHT22;3159;52.414;9.784;2023-03-21T07:24:08;10.40;99.90
6252;DHT22;3159;52.414;9.784;2023-03-21T07:26:35;10.30;99.90
6252;DHT22;3159;52.414;9.784;2023-03-21T07:29:02;10.30;99.90
6252;DHT22;3159;52.414;9.784;2023-03-21T07:31:29;10.40;99.90
6252;DHT22;3159;52.414;9.784;2023-03-21T07:33:55;10.30;99.90
6252;DHT22;3159;52.414;9.784;2023-03-21T07:36:22;10.50;99.90
6252;DHT22;3159;52.414;9.784;2023-03-21T07:38:50;10.50;99.90
6252;DHT22;3159;52.414;9.784;2023-03-21T07:41:17;10.40;99.90
6252;DHT22;3159;52.414;9.784;2023-03-21T07:43:44;10.50;99.90
6252;DHT22;3159;52.414;9.784;2023-03-21T07:46:11;10.40;99.90
6252;DHT22;3159;52.414;9.784;2023-03-21T07:48:37;10.60;99.90
6252;DHT22;3159;52.414;9.784;2023-03-21T07:51:05;10.40;99.90
6252;DHT22;3159;52.414;9.784;2023-03-21T07:53:31;10.50;99.90
6252;DHT22;3159;52.414;9.784;2023-03-21T07:56:00;10.60;99.90
6252;DHT22;3159;52.414;9.784;2023-03-21T07:58:27;10.70;99.90
6252;DHT22;3159;52.414;9.784;2023-03-21T08:00:54;10.70;99.90
6252;DHT22;3159;52.414;9.784;2023-03-21T08:03:21;10.70;99.90
6252;DHT22;3159;52.414;9.784;2023-03-21T08:05:51;10.80;99.90
6252;DHT22;3159;52.414;9.784;2023-03-21T08:08:17;10.80;99.90
6252;DHT22;3159;52.414;9.784;2023-03-21T08:10:44;10.90;99.90
6252;DHT22;3159;52.414;9.784;2023-03-21T08:13:12;10.90;99.90
6252;DHT22;3159;52.414;9.784;2023-03-21T08:15:39;10.90;99.90
6252;DHT22;3159;52.414;9.784;2023-03-21T08:18:06;10.90;99.90
6252;DHT22;3159;52.414;9.784;2023-03-21T08:20:33;10.80;99.90
6252;DHT22;3159;52.414;9.784;2023-03-21T08:23:00;10.90;99.90
6252;DHT22;3159;52.414;9.784;2023-03-21T08:25:27;10.90;99.90
6252;DHT22;3159;52.414;9.784;2023-03-21T08:27:54;10.70;99.90
6252;DHT22;3159;52.414;9.784;2023-03-21T08:30:23;10.70;99.90
6252;DHT22;3159;52.414;9.784;2023-03-21T08:32:55;10.70;99.90
6252;DHT22;3159;52.414;9.784;2023-03-21T08:35:23;10.70;99.90
6252;DHT22;3159;52.414;9.784;2023-03-21T08:37:49;10.80;99.90
6252;DHT22;3159;52.414;9.784;2023-03-21T08:40:17;10.80;99.90
6252;DHT22;3159;52.414;9.784;2023-03-21T08:42:45;10.90;99.90
6252;DHT22;3159;52.414;9.784;2023-03-21T08:45:14;10.90;99.90
6252;DHT22;3159;52.414;9.784;2023-03-21T08:47:43;10.90;99.90
6252;DHT22;3159;52.414;9.784;2023-03-21T08:50:12;10.80;99.90
6252;DHT22;3159;52.414;9.784;2023-03-21T08:52:40;10.80;99.90
6252;DHT22;3159;52.414;9.784;2023-03-21T08:55:07;10.70;99.90
6252;DHT22;3159;52.414;9.784;2023-03-21T08:57:35;10.70;99.90
6252;DHT22;3159;52.414;9.784;2023-03-21T09:00:03;10.70;99.90
6252;DHT22;3159;52.414;9.784;2023-03-21T09:02:35;10.80;99.90
6252;DHT22;3159;52.414;9.784;2023-03-21T09:05:04;10.80;99.90
6252;DHT22;3159;52.414;9.784;2023-03-21T09:07:32;10.90;99.90
6252;DHT22;3159;52.414;9.784;2023-03-21T09:10:00;10.90;99.90
6252;DHT22;3159;52.414;9.784;2023-03-21T09:12:27;11.10;99.90
6252;DHT22;3159;52.414;9.784;2023-03-21T09:14:54;11.10;99.90
6252;DHT22;3159;52.414;9.784;2023-03-21T09:17:21;11.10;99.90
6252;DHT22;3159;52.414;9.784;2023-03-21T09:19:48;11.10;99.90
6252;DHT22;3159;52.414;9.784;2023-03-21T09:22:16;11.20;99.90
6252;DHT22;3159;52.414;9.784;2023-03-21T09:24:45;11.20;99.90
6252;DHT22;3159;52.414;9.784;2023-03-21T09:27:14;11.20;99.90
6252;DHT22;3159;52.414;9.784;2023-03-21T09:29:42;11.20;99.90
6252;DHT22;3159;52.414;9.784;2023-03-21T09:32:09;11.20;99.90
6252;DHT22;3159;52.414;9.784;2023-03-21T09:34:36;11.20;99.90
6252;DHT22;3159;52.414;9.784;2023-03-21T09:37:05;11.30;99.90
6252;DHT22;3159;52.414;9.784;2023-03-21T09:39:36;11.30;99.90
6252;DHT22;3159;52.414;9.784;2023-03-21T09:42:12;11.30;99.90
6252;DHT22;3159;52.414;9.784;2023-03-21T09:44:50;11.30;99.90
6252;DHT22;3159;52.414;9.784;2023-03-21T09:47:21;11.40;99.90
6252;DHT22;3159;52.414;9.784;2023-03-21T09:49:52;11.40;99.90
6252;DHT22;3159;52.414;9.784;2023-03-21T09:52:26;11.40;99.90
6252;DHT22;3159;52.414;9.784;2023-03-21T09:54:55;11.40;99.90
6252;DHT22;3159;52.414;9.784;2023-03-21T09:57:29;11.40;99.90
6252;DHT22;3159;52.414;9.784;2023-03-21T09:59:58;11.50;99.90
6252;DHT22;3159;52.414;9.784;2023-03-21T10:02:37;11.60;99.90
6252;DHT22;3159;52.414;9.784;2023-03-21T10:05:12;11.60;99.90
6252;DHT22;3159;52.414;9.784;2023-03-21T10:07:46;11.60;99.90
6252;DHT22;3159;52.414;9.784;2023-03-21T10:10:19;11.60;99.90
6252;DHT22;3159;52.414;9.784;2023-03-21T10:12:49;11.60;99.90
6252;DHT22;3159;52.414;9.784;2023-03-21T10:15:20;11.50;99.90
6252;DHT22;3159;52.414;9.784;2023-03-21T10:17:52;11.50;99.90
6252;DHT22;3159;52.414;9.784;2023-03-21T10:20:22;11.50;99.90
6252;DHT22;3159;52.414;9.784;2023-03-21T10:22:50;11.50;99.90
6252;DHT22;3159;52.414;9.784;2023-03-21T10:25:21;11.50;99.90
6252;DHT22;3159;52.414;9.784;2023-03-21T10:27:50;11.50;99.90
6252;DHT22;3159;52.414;9.784;2023-03-21T10:30:29;11.50;99.90
6252;DHT22;3159;52.414;9.784;2023-03-21T10:33:00;11.50;99.90
6252;DHT22;3159;52.414;9.784;2023-03-21T10:35:30;11.50;99.90
6252;DHT22;3159;52.414;9.784;2023-03-21T10:37:58;11.60;99.90
6252;DHT22;3159;52.414;9.784;2023-03-21T10:40:27;11.70;99.90
6252;DHT22;3159;52.414;9.784;2023-03-21T10:42:55;11.80;99.90
6252;DHT22;3159;52.414;9.784;2023-03-21T10:45:22;11.90;99.90
6252;DHT22;3159;52.414;9.784;2023-03-21T10:47:50;11.80;99.90
6252;DHT22;3159;52.414;9.784;2023-03-21T10:50:18;11.90;99.90
6252;DHT22;3159;52.414;9.784;2023-03-21T10:52:52;12.00;99.90
6252;DHT22;3159;52.414;9.784;2023-03-21T10:55:27;12.00;99.90
6252;DHT22;3159;52.414;9.784;2023-03-21T10:57:59;12.10;99.90
6252;DHT22;3159;52.414;9.784;2023-03-21T11:00:29;12.10;99.90
6252;DHT22;3159;52.414;9.784;2023-03-21T11:03:00;12.00;99.90
6252;DHT22;3159;52.414;9.784;2023-03-21T11:05:34;11.90;99.90
6252;DHT22;3159;52.414;9.784;2023-03-21T11:08:03;11.90;99.90
6252;DHT22;3159;52.414;9.784;2023-03-21T11:10:34;11.70;99.90
6252;DHT22;3159;52.414;9.784;2023-03-21T11:13:06;11.70;99.90
6252;DHT22;3159;52.414;9.784;2023-03-21T11:15:41;11.80;99.90
6252;DHT22;3159;52.414;9.784;2023-03-21T11:18:17;11.70;99.90
6252;DHT22;3159;52.414;9.784;2023-03-21T11:20:51;11.60;99.90
6252;DHT22;3159;52.414;9.784;2023-03-21T11:23:18;11.60;99.90
6252;DHT22;3159;52.414;9.784;2023-03-21T11:25:48;11.70;99.90
6252;DHT22;3159;52.414;9.784;2023-03-21T11:28:18;11.70;99.90
6252;DHT22;3159;52.414;9.784;2023-03-21T11:30:51;11.60;99.90
6252;DHT22;3159;52.414;9.784;2023-03-21T11:33:20;11.60;99.90
6252;DHT22;3159;52.414;9.784;2023-03-21T11:35:58;11.60;99.90
6252;DHT22;3159;52.414;9.784;2023-03-21T11:38:28;11.70;99.90
6252;DHT22;3159;52.414;9.784;2023-03-21T11:40:59;11.70;99.90
6252;DHT22;3159;52.414;9.784;2023-03-21T11:43:28;11.60;99.90
6252;DHT22;3159;52.414;9.784;2023-03-21T11:45:57;11.60;99.90
6252;DHT22;3159;52.414;9.784;2023-03-21T11:48:25;11.70;99.90
6252;DHT22;3159;52.414;9.784;2023-03-21T11:50:58;11.60;99.90
6252;DHT22;3159;52.414;9.784;2023-03-21T11:53:33;11.70;99.90
6252;DHT22;3159;52.414;9.784;2023-03-21T11:59:06;11.80;99.90
6252;DHT22;3159;52.414;9.784;2023-03-21T12:01:44;11.80;99.90
6252;DHT22;3159;52.414;9.784;2023-03-21T12:04:20;11.90;99.90
6252;DHT22;3159;52.414;9.784;2023-03-21T12:06:57;11.90;99.90
6252;DHT22;3159;52.414;9.784;2023-03-21T12:09:35;11.80;99.90
6252;DHT22;3159;52.414;9.784;2023-03-21T12:12:14;11.80;99.90
6252;DHT22;3159;52.414;9.784;2023-03-21T12:14:54;11.80;99.90
6252;DHT22;3159;52.414;9.784;2023-03-21T12:17:35;11.80;99.90
6252;DHT22;3159;52.414;9.784;2023-03-21T12:20:13;11.80;99.90
6252;DHT22;3159;52.414;9.784;2023-03-21T12:22:52;11.80;99.90
6252;DHT22;3159;52.414;9.784;2023-03-21T12:25:25;11.80;99.90
6252;DHT22;3159;52.414;9.784;2023-03-21T12:28:03;11.90;99.90
6252;DHT22;3159;52.414;9.784;2023-03-21T12:30:47;11.90;99.90
6252;DHT22;3159;52.414;9.784;2023-03-21T12:33:47;11.80;99.90
6252;DHT22;3159;52.414;9.784;2023-03-21T12:36:25;11.70;99.90
6252;DHT22;3159;52.414;9.784;2023-03-21T12:39:03;11.80;99.90
6252;DHT22;3159;52.414;9.784;2023-03-21T12:41:35;11.70;99.90
6252;DHT22;3159;52.414;9.784;2023-03-21T12:44:10;11.70;99.90
6252;DHT22;3159;52.414;9.784;2023-03-21T12:46:44;11.70;99.90
6252;DHT22;3159;52.414;9.784;2023-03-21T12:49:15;11.60;99.90
6252;DHT22;3159;52.414;9.784;2023-03-21T12:51:45;11.60;99.90
6252;DHT22;3159;52.414;9.784;2023-03-21T12:54:19;11.70;99.90
6252;DHT22;3159;52.414;9.784;2023-03-21T12:56:53;11.90;99.90
6252;DHT22;3159;52.414;9.784;2023-03-21T12:59:32;11.90;99.90
6252;DHT22;3159;52.414;9.784;2023-03-21T13:02:13;11.90;99.90
6252;DHT22;3159;52.414;9.784;2023-03-21T13:04:46;11.90;99.90
6252;DHT22;3159;52.414;9.784;2023-03-21T13:07:19;11.70;99.90
6252;DHT22;3159;52.414;9.784;2023-03-21T13:09:46;11.70;99.90
6252;DHT22;3159;52.414;9.784;2023-03-21T13:12:25;11.80;99.90
6252;DHT22;3159;52.414;9.784;2023-03-21T13:15:04;11.80;99.90
6252;DHT22;3159;52.414;9.784;2023-03-21T13:17:37;11.90;99.90
6252;DHT22;3159;52.414;9.784;2023-03-21T13:20:14;11.90;99.90
6252;DHT22;3159;52.414;9.784;2023-03-21T13:22:45;11.90;99.90
6252;DHT22;3159;52.414;9.784;2023-03-21T13:25:17;11.90;99.90
6252;DHT22;3159;52.414;9.784;2023-03-21T13:27:51;11.90;99.90
6252;DHT22;3159;52.414;9.784;2023-03-21T13:30:21;11.80;99.90
6252;DHT22;3159;52.414;9.784;2023-03-21T13:32:54;11.80;99.90
6252;DHT22;3159;52.414;9.784;2023-03-21T13:35:23;11.80;99.90
6252;DHT22;3159;52.414;9.784;2023-03-21T13:37:57;11.80;99.90
6252;DHT22;3159;52.414;9.784;2023-03-21T13:40:26;11.80;99.90
6252;DHT22;3159;52.414;9.784;2023-03-21T13:42:57;11.90;99.90
6252;DHT22;3159;52.414;9.784;2023-03-21T13:45:30;11.90;99.90
6252;DHT22;3159;52.414;9.784;2023-03-21T13:47:58;11.90;99.90
6252;DHT22;3159;52.414;9.784;2023-03-21T13:50:29;11.70;99.90
6252;DHT22;3159;52.414;9.784;2023-03-21T13:53:23;11.70;99.90
6252;DHT22;3159;52.414;9.784;2023-03-21T13:56:21;11.60;99.90
6252;DHT22;3159;52.414;9.784;2023-03-21T13:59:08;11.70;99.90
6252;DHT22;3159;52.414;9.784;2023-03-21T14:01:38;11.70;99.90
6252;DHT22;3159;52.414;9.784;2023-03-21T14:04:13;11.60;99.90
6252;DHT22;3159;52.414;9.784;2023-03-21T14:06:47;11.60;99.90
6252;DHT22;3159;52.414;9.784;2023-03-21T14:09:20;11.50;99.90
6252;DHT22;3159;52.414;9.784;2023-03-21T14:11:49;11.60;99.90
6252;DHT22;3159;52.414;9.784;2023-03-21T14:14:17;11.50;99.90
6252;DHT22;3159;52.414;9.784;2023-03-21T14:16:46;11.60;99.90
6252;DHT22;3159;52.414;9.784;2023-03-21T14:19:13;11.70;99.90
6252;DHT22;3159;52.414;9.784;2023-03-21T14:21:47;11.70;99.90
6252;DHT22;3159;52.414;9.784;2023-03-21T14:24:16;11.70;99.90
6252;DHT22;3159;52.414;9.784;2023-03-21T14:26:46;11.60;99.90
6252;DHT22;3159;52.414;9.784;2023-03-21T14:29:19;11.70;99.90
6252;DHT22;3159;52.414;9.784;2023-03-21T14:31:47;11.70;99.90
6252;DHT22;3159;52.414;9.784;2023-03-21T14:34:15;11.60;99.90
6252;DHT22;3159;52.414;9.784;2023-03-21T14:36:43;11.60;99.90
6252;DHT22;3159;52.414;9.784;2023-03-21T14:39:13;11.60;99.90
6252;DHT22;3159;52.414;9.784;2023-03-21T14:41:46;11.70;99.90
6252;DHT22;3159;52.414;9.784;2023-03-21T14:44:24;11.60;99.90
6252;DHT22;3159;52.414;9.784;2023-03-21T14:47:00;11.60;99.90
6252;DHT22;3159;52.414;9.784;2023-03-21T14:49:28;11.60;99.90
6252;DHT22;3159;52.414;9.784;2023-03-21T14:51:57;11.70;99.90
6252;DHT22;3159;52.414;9.784;2023-03-21T14:54:25;11.60;99.90
6252;DHT22;3159;52.414;9.784;2023-03-21T14:56:55;11.80;99.90
6252;DHT22;3159;52.414;9.784;2023-03-21T14:59:26;11.70;99.90
6252;DHT22;3159;52.414;9.784;2023-03-21T15:01:58;11.80;99.90
6252;DHT22;3159;52.414;9.784;2023-03-21T15:04:27;11.80;99.90
6252;DHT22;3159;52.414;9.784;2023-03-21T15:06:56;11.80;99.90
6252;DHT22;3159;52.414;9.784;2023-03-21T15:09:29;11.80;99.90
6252;DHT22;3159;52.414;9.784;2023-03-21T15:11:57;11.80;99.90
6252;DHT22;3159;52.414;9.784;2023-03-21T15:14:30;11.70;99.90
6252;DHT22;3159;52.414;9.784;2023-03-21T15:17:01;11.70;99.90
6252;DHT22;3159;52.414;9.784;2023-03-21T15:19:33;11.80;99.90
6252;DHT22;3159;52.414;9.784;2023-03-21T15:22:07;11.80;99.90
6252;DHT22;3159;52.414;9.784;2023-03-21T15:24:38;11.80;99.90
6252;DHT22;3159;52.414;9.784;2023-03-21T15:27:12;11.80;99.90
6252;DHT22;3159;52.414;9.784;2023-03-21T15:29:40;11.80;99.90
6252;DHT22;3159;52.414;9.784;2023-03-21T15:32:13;11.80;99.90
6252;DHT22;3159;52.414;9.784;2023-03-21T15:34:41;11.80;99.90
6252;DHT22;3159;52.414;9.784;2023-03-21T15:37:16;11.80;99.90
6252;DHT22;3159;52.414;9.784;2023-03-21T15:39:44;11.80;99.90
6252;DHT22;3159;52.414;9.784;2023-03-21T15:42:27;11.80;99.90
6252;DHT22;3159;52.414;9.784;2023-03-21T15:44:56;11.80;99.90
6252;DHT22;3159;52.414;9.784;2023-03-21T15:47:40;11.80;99.90
6252;DHT22;3159;52.414;9.784;2023-03-21T15:50:10;11.80;99.90
6252;DHT22;3159;52.414;9.784;2023-03-21T15:52:42;11.80;99.90
6252;DHT22;3159;52.414;9.784;2023-03-21T15:55:20;11.80;99.90
6252;DHT22;3159;52.414;9.784;2023-03-21T15:57:52;11.80;99.90
6252;DHT22;3159;52.414;9.784;2023-03-21T16:00:23;11.90;99.90
6252;DHT22;3159;52.414;9.784;2023-03-21T16:02:57;11.90;99.90
6252;DHT22;3159;52.414;9.784;2023-03-21T16:05:26;11.90;99.90
6252;DHT22;3159;52.414;9.784;2023-03-21T16:07:57;11.80;99.90
6252;DHT22;3159;52.414;9.784;2023-03-21T16:10:27;11.80;99.90
6252;DHT22;3159;52.414;9.784;2023-03-21T16:12:54;11.80;99.90
6252;DHT22;3159;52.414;9.784;2023-03-21T16:15:23;11.70;99.90
6252;DHT22;3159;52.414;9.784;2023-03-21T16:17:51;11.80;99.90
6252;DHT22;3159;52.414;9.784;2023-03-21T16:20:23;11.70;99.90
6252;DHT22;3159;52.414;9.784;2023-03-21T16:22:50;11.70;99.90
6252;DHT22;3159;52.414;9.784;2023-03-21T16:25:17;11.70;99.90
6252;DHT22;3159;52.414;9.784;2023-03-21T16:27:44;11.70;99.90
6252;DHT22;3159;52.414;9.784;2023-03-21T16:30:14;11.70;99.90
6252;DHT22;3159;52.414;9.784;2023-03-21T16:32:41;11.50;99.90